sensor_id;sensor_type;location;lat;lon;timestamp;P1;durP1;ratioP1;P2;durP2;ratioP2
53646;SDS011;39550;52.230;5.194;2022-09-13T00:02:07;5.77;;;4.57;;
53646;SDS011;39550;52.230;5.194;2022-09-13T00:04:32;7.00;;;4.78;;
53646;SDS011;39550;52.230;5.194;2022-09-13T00:06:58;6.35;;;4.57;;
53646;SDS011;39550;52.230;5.194;2022-09-13T00:09:24;5.85;;;4.43;;
53646;SDS011;39550;52.230;5.194;2022-09-13T00:11:50;5.32;;;4.10;;
53646;SDS011;39550;52.230;5.194;2022-09-13T00:14:15;6.60;;;4.57;;
53646;SDS011;39550;52.230;5.194;2022-09-13T00:16:41;5.70;;;4.32;;
53646;SDS011;39550;52.230;5.194;2022-09-13T00:19:06;6.35;;;4.30;;
53646;SDS011;39550;52.230;5.194;2022-09-13T00:21:31;6.20;;;4.60;;
53646;SDS011;39550;52.230;5.194;2022-09-13T00:23:56;6.53;;;4.70;;
53646;SDS011;39550;52.230;5.194;2022-09-13T00:26:23;5.50;;;4.10;;
53646;SDS011;39550;52.230;5.194;2022-09-13T00:28:51;6.70;;;4.78;;
53646;SDS011;39550;52.230;5.194;2022-09-13T00:31:17;6.20;;;4.57;;
53646;SDS011;39550;52.230;5.194;2022-09-13T00:33:44;5.68;;;4.30;;
53646;SDS011;39550;52.230;5.194;2022-09-13T00:36:10;5.93;;;4.10;;
53646;SDS011;39550;52.230;5.194;2022-09-13T00:38:39;5.65;;;4.13;;
53646;SDS011;39550;52.230;5.194;2022-09-13T00:41:06;7.03;;;4.50;;
53646;SDS011;39550;52.230;5.194;2022-09-13T00:43:53;5.18;;;4.05;;
53646;SDS011;39550;52.230;5.194;2022-09-13T00:46:26;5.70;;;3.80;;
53646;SDS011;39550;52.230;5.194;2022-09-13T00:51:57;7.05;;;4.68;;
53646;SDS011;39550;52.230;5.194;2022-09-13T00:54:28;6.28;;;4.50;;
53646;SDS011;39550;52.230;5.194;2022-09-13T00:57:00;6.25;;;4.40;;
53646;SDS011;39550;52.230;5.194;2022-09-13T00:59:29;6.85;;;4.43;;
53646;SDS011;39550;52.230;5.194;2022-09-13T01:02:01;7.43;;;4.60;;
53646;SDS011;39550;52.230;5.194;2022-09-13T01:04:28;6.13;;;4.72;;
53646;SDS011;39550;52.230;5.194;2022-09-13T01:06:57;6.60;;;5.15;;
53646;SDS011;39550;52.230;5.194;2022-09-13T01:09:24;7.95;;;4.55;;
53646;SDS011;39550;52.230;5.194;2022-09-13T01:11:52;6.43;;;4.07;;
53646;SDS011;39550;52.230;5.194;2022-09-13T01:14:28;6.10;;;4.75;;
53646;SDS011;39550;52.230;5.194;2022-09-13T01:16:54;6.35;;;4.63;;
53646;SDS011;39550;52.230;5.194;2022-09-13T01:19:20;6.55;;;4.57;;
53646;SDS011;39550;52.230;5.194;2022-09-13T01:24:46;5.63;;;4.28;;
53646;SDS011;39550;52.230;5.194;2022-09-13T01:30:11;5.82;;;4.40;;
53646;SDS011;39550;52.230;5.194;2022-09-13T01:41:47;6.10;;;4.85;;
53646;SDS011;39550;52.230;5.194;2022-09-13T01:44:28;5.78;;;4.10;;
53646;SDS011;39550;52.230;5.194;2022-09-13T01:52:55;5.63;;;4.50;;
53646;SDS011;39550;52.230;5.194;2022-09-13T01:55:29;6.22;;;4.50;;
53646;SDS011;39550;52.230;5.194;2022-09-13T02:03:51;6.43;;;4.60;;
53646;SDS011;39550;52.230;5.194;2022-09-13T02:06:22;7.90;;;4.78;;
53646;SDS011;39550;52.230;5.194;2022-09-13T02:08:53;8.35;;;5.30;;
53646;SDS011;39550;52.230;5.194;2022-09-13T02:11:20;6.60;;;4.88;;
53646;SDS011;39550;52.230;5.194;2022-09-13T02:13:48;6.53;;;5.07;;
53646;SDS011;39550;52.230;5.194;2022-09-13T02:16:23;6.45;;;4.40;;
53646;SDS011;39550;52.230;5.194;2022-09-13T02:18:54;6.03;;;4.55;;
53646;SDS011;39550;52.230;5.194;2022-09-13T02:21:33;6.30;;;4.60;;
53646;SDS011;39550;52.230;5.194;2022-09-13T02:24:12;6.63;;;4.88;;
53646;SDS011;39550;52.230;5.194;2022-09-13T02:26:41;6.63;;;5.38;;
53646;SDS011;39550;52.230;5.194;2022-09-13T02:29:12;7.20;;;4.85;;
53646;SDS011;39550;52.230;5.194;2022-09-13T02:31:43;6.70;;;4.88;;
53646;SDS011;39550;52.230;5.194;2022-09-13T02:34:24;6.25;;;4.88;;
53646;SDS011;39550;52.230;5.194;2022-09-13T02:39:23;6.68;;;4.60;;
53646;SDS011;39550;52.230;5.194;2022-09-13T02:42:04;7.60;;;5.47;;
53646;SDS011;39550;52.230;5.194;2022-09-13T02:44:56;7.10;;;5.30;;
53646;SDS011;39550;52.230;5.194;2022-09-13T02:50:06;6.63;;;4.80;;
53646;SDS011;39550;52.230;5.194;2022-09-13T02:55:16;6.50;;;4.72;;
53646;SDS011;39550;52.230;5.194;2022-09-13T02:57:49;6.05;;;4.72;;
53646;SDS011;39550;52.230;5.194;2022-09-13T03:00:21;6.28;;;4.88;;
53646;SDS011;39550;52.230;5.194;2022-09-13T03:02:47;7.20;;;4.97;;
53646;SDS011;39550;52.230;5.194;2022-09-13T03:05:14;6.50;;;5.10;;
53646;SDS011;39550;52.230;5.194;2022-09-13T03:07:40;7.07;;;4.95;;
53646;SDS011;39550;52.230;5.194;2022-09-13T03:10:06;5.82;;;4.57;;
53646;SDS011;39550;52.230;5.194;2022-09-13T03:12:44;7.57;;;4.82;;
53646;SDS011;39550;52.230;5.194;2022-09-13T03:15:19;6.22;;;4.55;;
53646;SDS011;39550;52.230;5.194;2022-09-13T03:18:07;6.53;;;5.00;;
53646;SDS011;39550;52.230;5.194;2022-09-13T03:21:00;7.82;;;5.15;;
53646;SDS011;39550;52.230;5.194;2022-09-13T03:26:28;5.85;;;4.68;;
53646;SDS011;39550;52.230;5.194;2022-09-13T03:29:23;6.50;;;5.00;;
53646;SDS011;39550;52.230;5.194;2022-09-13T03:32:00;6.72;;;4.60;;
53646;SDS011;39550;52.230;5.194;2022-09-13T03:34:41;6.15;;;4.35;;
53646;SDS011;39550;52.230;5.194;2022-09-13T03:37:41;5.93;;;4.25;;
53646;SDS011;39550;52.230;5.194;2022-09-13T03:40:13;6.53;;;5.25;;
53646;SDS011;39550;52.230;5.194;2022-09-13T03:42:47;6.60;;;5.10;;
53646;SDS011;39550;52.230;5.194;2022-09-13T03:45:16;7.10;;;4.88;;
53646;SDS011;39550;52.230;5.194;2022-09-13T03:47:45;5.97;;;4.78;;
53646;SDS011;39550;52.230;5.194;2022-09-13T03:50:17;7.07;;;5.20;;
53646;SDS011;39550;52.230;5.194;2022-09-13T03:52:45;7.15;;;5.07;;
53646;SDS011;39550;52.230;5.194;2022-09-13T03:55:12;6.80;;;5.10;;
53646;SDS011;39550;52.230;5.194;2022-09-13T03:57:37;5.82;;;4.57;;
53646;SDS011;39550;52.230;5.194;2022-09-13T04:00:03;6.20;;;4.78;;
53646;SDS011;39550;52.230;5.194;2022-09-13T04:02:29;6.35;;;4.93;;
53646;SDS011;39550;52.230;5.194;2022-09-13T04:04:54;5.93;;;4.50;;
53646;SDS011;39550;52.230;5.194;2022-09-13T04:07:21;5.68;;;4.55;;
53646;SDS011;39550;52.230;5.194;2022-09-13T04:09:48;6.10;;;4.50;;
53646;SDS011;39550;52.230;5.194;2022-09-13T04:12:14;5.97;;;4.82;;
53646;SDS011;39550;52.230;5.194;2022-09-13T04:14:41;6.53;;;4.80;;
53646;SDS011;39550;52.230;5.194;2022-09-13T04:17:09;6.32;;;4.80;;
53646;SDS011;39550;52.230;5.194;2022-09-13T04:19:36;5.85;;;4.70;;
53646;SDS011;39550;52.230;5.194;2022-09-13T04:22:01;6.30;;;4.60;;
53646;SDS011;39550;52.230;5.194;2022-09-13T04:24:28;6.32;;;4.65;;
53646;SDS011;39550;52.230;5.194;2022-09-13T04:26:54;5.70;;;4.30;;
53646;SDS011;39550;52.230;5.194;2022-09-13T04:29:20;5.88;;;4.75;;
53646;SDS011;39550;52.230;5.194;2022-09-13T04:31:47;5.95;;;4.55;;
53646;SDS011;39550;52.230;5.194;2022-09-13T04:34:14;6.90;;;4.57;;
53646;SDS011;39550;52.230;5.194;2022-09-13T04:36:40;7.03;;;4.85;;
53646;SDS011;39550;52.230;5.194;2022-09-13T04:39:05;6.28;;;4.38;;
53646;SDS011;39550;52.230;5.194;2022-09-13T04:41:31;6.07;;;4.78;;
53646;SDS011;39550;52.230;5.194;2022-09-13T04:43:58;5.70;;;4.32;;
53646;SDS011;39550;52.230;5.194;2022-09-13T04:46:24;6.07;;;4.70;;
53646;SDS011;39550;52.230;5.194;2022-09-13T04:48:50;6.03;;;4.72;;
53646;SDS011;39550;52.230;5.194;2022-09-13T04:51:16;6.75;;;5.18;;
53646;SDS011;39550;52.230;5.194;2022-09-13T04:53:45;6.20;;;4.60;;
53646;SDS011;39550;52.230;5.194;2022-09-13T04:56:11;6.03;;;5.10;;
53646;SDS011;39550;52.230;5.194;2022-09-13T04:58:39;6.07;;;4.80;;
53646;SDS011;39550;52.230;5.194;2022-09-13T05:01:05;6.88;;;4.97;;
53646;SDS011;39550;52.230;5.194;2022-09-13T05:03:33;6.93;;;4.75;;
53646;SDS011;39550;52.230;5.194;2022-09-13T05:06:00;6.38;;;4.97;;
53646;SDS011;39550;52.230;5.194;2022-09-13T05:08:29;6.55;;;4.68;;
53646;SDS011;39550;52.230;5.194;2022-09-13T05:10:55;6.90;;;5.20;;
53646;SDS011;39550;52.230;5.194;2022-09-13T05:13:20;7.75;;;4.82;;
53646;SDS011;39550;52.230;5.194;2022-09-13T05:18:18;8.10;;;5.03;;
53646;SDS011;39550;52.230;5.194;2022-09-13T05:20:43;8.35;;;5.57;;
53646;SDS011;39550;52.230;5.194;2022-09-13T05:23:09;8.95;;;5.72;;
53646;SDS011;39550;52.230;5.194;2022-09-13T05:25:34;9.50;;;5.95;;
53646;SDS011;39550;52.230;5.194;2022-09-13T05:27:59;8.27;;;6.22;;
53646;SDS011;39550;52.230;5.194;2022-09-13T05:30:25;7.65;;;6.03;;
53646;SDS011;39550;52.230;5.194;2022-09-13T05:32:50;10.23;;;6.38;;
53646;SDS011;39550;52.230;5.194;2022-09-13T05:35:15;8.47;;;6.10;;
53646;SDS011;39550;52.230;5.194;2022-09-13T05:37:40;6.82;;;5.38;;
53646;SDS011;39550;52.230;5.194;2022-09-13T05:40:06;8.80;;;6.30;;
53646;SDS011;39550;52.230;5.194;2022-09-13T05:42:31;8.05;;;5.93;;
53646;SDS011;39550;52.230;5.194;2022-09-13T05:44:59;8.65;;;5.97;;
53646;SDS011;39550;52.230;5.194;2022-09-13T05:47:27;8.48;;;6.40;;
53646;SDS011;39550;52.230;5.194;2022-09-13T05:49:53;10.02;;;5.80;;
53646;SDS011;39550;52.230;5.194;2022-09-13T05:52:18;9.13;;;6.80;;
53646;SDS011;39550;52.230;5.194;2022-09-13T05:54:43;8.25;;;5.72;;
53646;SDS011;39550;52.230;5.194;2022-09-13T05:57:09;9.38;;;6.18;;
53646;SDS011;39550;52.230;5.194;2022-09-13T05:59:34;7.90;;;5.95;;
53646;SDS011;39550;52.230;5.194;2022-09-13T06:02:00;8.40;;;6.05;;
53646;SDS011;39550;52.230;5.194;2022-09-13T06:04:25;8.57;;;6.38;;
53646;SDS011;39550;52.230;5.194;2022-09-13T06:06:50;9.23;;;6.10;;
53646;SDS011;39550;52.230;5.194;2022-09-13T06:09:22;7.90;;;6.05;;
53646;SDS011;39550;52.230;5.194;2022-09-13T06:11:47;9.98;;;7.78;;
53646;SDS011;39550;52.230;5.194;2022-09-13T06:14:12;9.32;;;6.95;;
53646;SDS011;39550;52.230;5.194;2022-09-13T06:16:38;8.82;;;6.60;;
53646;SDS011;39550;52.230;5.194;2022-09-13T06:19:03;7.70;;;6.00;;
53646;SDS011;39550;52.230;5.194;2022-09-13T06:21:28;8.73;;;6.38;;
53646;SDS011;39550;52.230;5.194;2022-09-13T06:23:54;8.38;;;6.40;;
53646;SDS011;39550;52.230;5.194;2022-09-13T06:26:23;9.13;;;6.75;;
53646;SDS011;39550;52.230;5.194;2022-09-13T06:28:51;8.63;;;6.38;;
53646;SDS011;39550;52.230;5.194;2022-09-13T06:31:19;8.68;;;6.75;;
53646;SDS011;39550;52.230;5.194;2022-09-13T06:33:46;9.90;;;7.10;;
53646;SDS011;39550;52.230;5.194;2022-09-13T06:36:12;9.15;;;6.72;;
53646;SDS011;39550;52.230;5.194;2022-09-13T06:38:40;10.23;;;7.30;;
53646;SDS011;39550;52.230;5.194;2022-09-13T06:41:10;9.75;;;7.47;;
53646;SDS011;39550;52.230;5.194;2022-09-13T06:43:51;10.05;;;7.70;;
53646;SDS011;39550;52.230;5.194;2022-09-13T06:46:21;8.77;;;6.32;;
53646;SDS011;39550;52.230;5.194;2022-09-13T06:48:47;9.80;;;7.35;;
53646;SDS011;39550;52.230;5.194;2022-09-13T06:51:16;10.60;;;7.55;;
53646;SDS011;39550;52.230;5.194;2022-09-13T06:53:44;10.95;;;7.30;;
53646;SDS011;39550;52.230;5.194;2022-09-13T06:56:12;10.43;;;7.90;;
53646;SDS011;39550;52.230;5.194;2022-09-13T06:58:42;11.98;;;7.68;;
53646;SDS011;39550;52.230;5.194;2022-09-13T07:03:43;10.98;;;7.78;;
53646;SDS011;39550;52.230;5.194;2022-09-13T07:06:12;10.38;;;6.95;;
53646;SDS011;39550;52.230;5.194;2022-09-13T07:08:51;12.13;;;7.68;;
53646;SDS011;39550;52.230;5.194;2022-09-13T07:11:18;10.07;;;7.45;;
53646;SDS011;39550;52.230;5.194;2022-09-13T07:13:52;9.60;;;6.85;;
53646;SDS011;39550;52.230;5.194;2022-09-13T07:16:19;12.00;;;7.72;;
53646;SDS011;39550;52.230;5.194;2022-09-13T07:18:50;10.73;;;7.10;;
53646;SDS011;39550;52.230;5.194;2022-09-13T07:21:17;9.73;;;7.50;;
53646;SDS011;39550;52.230;5.194;2022-09-13T07:23:43;10.93;;;6.72;;
53646;SDS011;39550;52.230;5.194;2022-09-13T07:26:08;9.13;;;6.88;;
53646;SDS011;39550;52.230;5.194;2022-09-13T07:28:38;9.25;;;6.45;;
53646;SDS011;39550;52.230;5.194;2022-09-13T07:33:34;9.60;;;6.22;;
53646;SDS011;39550;52.230;5.194;2022-09-13T07:36:00;9.63;;;6.75;;
53646;SDS011;39550;52.230;5.194;2022-09-13T07:38:30;8.82;;;6.57;;
53646;SDS011;39550;52.230;5.194;2022-09-13T07:40:56;8.60;;;5.75;;
53646;SDS011;39550;52.230;5.194;2022-09-13T07:43:23;8.10;;;6.00;;
53646;SDS011;39550;52.230;5.194;2022-09-13T07:45:56;8.18;;;5.88;;
53646;SDS011;39550;52.230;5.194;2022-09-13T07:48:23;9.82;;;5.60;;
53646;SDS011;39550;52.230;5.194;2022-09-13T07:51:00;7.85;;;5.85;;
53646;SDS011;39550;52.230;5.194;2022-09-13T07:53:29;7.35;;;5.55;;
53646;SDS011;39550;52.230;5.194;2022-09-13T07:56:06;8.00;;;5.65;;
53646;SDS011;39550;52.230;5.194;2022-09-13T07:58:32;8.25;;;5.30;;
53646;SDS011;39550;52.230;5.194;2022-09-13T08:01:06;7.93;;;5.68;;
53646;SDS011;39550;52.230;5.194;2022-09-13T08:03:36;6.80;;;5.32;;
53646;SDS011;39550;52.230;5.194;2022-09-13T08:06:02;8.65;;;5.50;;
53646;SDS011;39550;52.230;5.194;2022-09-13T08:08:28;7.03;;;5.10;;
53646;SDS011;39550;52.230;5.194;2022-09-13T08:10:54;7.20;;;4.72;;
53646;SDS011;39550;52.230;5.194;2022-09-13T08:13:19;7.47;;;5.10;;
53646;SDS011;39550;52.230;5.194;2022-09-13T08:15:45;7.38;;;4.70;;
53646;SDS011;39550;52.230;5.194;2022-09-13T08:18:10;6.80;;;4.43;;
53646;SDS011;39550;52.230;5.194;2022-09-13T08:20:36;6.20;;;4.30;;
53646;SDS011;39550;52.230;5.194;2022-09-13T08:23:02;6.30;;;4.40;;
53646;SDS011;39550;52.230;5.194;2022-09-13T08:25:30;6.47;;;4.43;;
53646;SDS011;39550;52.230;5.194;2022-09-13T08:27:57;6.45;;;4.40;;
53646;SDS011;39550;52.230;5.194;2022-09-13T08:30:22;6.05;;;4.03;;
53646;SDS011;39550;52.230;5.194;2022-09-13T08:32:49;6.57;;;4.05;;
53646;SDS011;39550;52.230;5.194;2022-09-13T08:35:15;5.13;;;3.95;;
53646;SDS011;39550;52.230;5.194;2022-09-13T08:37:40;5.60;;;4.10;;
53646;SDS011;39550;52.230;5.194;2022-09-13T08:40:06;5.33;;;3.80;;
53646;SDS011;39550;52.230;5.194;2022-09-13T08:42:37;5.32;;;3.88;;
53646;SDS011;39550;52.230;5.194;2022-09-13T08:45:13;5.13;;;3.30;;
53646;SDS011;39550;52.230;5.194;2022-09-13T08:47:45;5.13;;;3.85;;
53646;SDS011;39550;52.230;5.194;2022-09-13T08:50:22;5.70;;;3.65;;
53646;SDS011;39550;52.230;5.194;2022-09-13T09:01:01;5.38;;;3.60;;
53646;SDS011;39550;52.230;5.194;2022-09-13T09:03:45;5.35;;;3.45;;
53646;SDS011;39550;52.230;5.194;2022-09-13T09:06:17;4.53;;;3.30;;
53646;SDS011;39550;52.230;5.194;2022-09-13T09:09:02;4.50;;;3.10;;
53646;SDS011;39550;52.230;5.194;2022-09-13T09:14:07;5.85;;;3.20;;
53646;SDS011;39550;52.230;5.194;2022-09-13T09:16:49;4.40;;;3.20;;
53646;SDS011;39550;52.230;5.194;2022-09-13T09:19:22;4.22;;;2.95;;
53646;SDS011;39550;52.230;5.194;2022-09-13T09:21:54;5.32;;;3.17;;
53646;SDS011;39550;52.230;5.194;2022-09-13T09:24:24;4.57;;;3.20;;
53646;SDS011;39550;52.230;5.194;2022-09-13T09:26:50;5.03;;;2.80;;
53646;SDS011;39550;52.230;5.194;2022-09-13T09:29:30;5.63;;;2.95;;
53646;SDS011;39550;52.230;5.194;2022-09-13T09:37:38;4.18;;;2.70;;
53646;SDS011;39550;52.230;5.194;2022-09-13T09:40:08;4.43;;;2.80;;
53646;SDS011;39550;52.230;5.194;2022-09-13T09:42:39;4.25;;;2.72;;
53646;SDS011;39550;52.230;5.194;2022-09-13T09:45:26;7.20;;;3.33;;
53646;SDS011;39550;52.230;5.194;2022-09-13T09:47:54;4.30;;;2.70;;
53646;SDS011;39550;52.230;5.194;2022-09-13T09:50:24;5.05;;;3.00;;
53646;SDS011;39550;52.230;5.194;2022-09-13T09:53:40;3.83;;;2.53;;
53646;SDS011;39550;52.230;5.194;2022-09-13T09:55:50;5.38;;;2.70;;
53646;SDS011;39550;52.230;5.194;2022-09-13T09:58:38;4.20;;;2.67;;
53646;SDS011;39550;52.230;5.194;2022-09-13T10:01:13;7.30;;;2.90;;
53646;SDS011;39550;52.230;5.194;2022-09-13T10:03:47;3.85;;;2.28;;
53646;SDS011;39550;52.230;5.194;2022-09-13T10:06:22;4.18;;;2.60;;
53646;SDS011;39550;52.230;5.194;2022-09-13T10:11:20;6.20;;;2.92;;
53646;SDS011;39550;52.230;5.194;2022-09-13T10:13:59;5.18;;;2.80;;
53646;SDS011;39550;52.230;5.194;2022-09-13T10:16:29;4.72;;;2.40;;
53646;SDS011;39550;52.230;5.194;2022-09-13T10:19:19;4.28;;;2.35;;
53646;SDS011;39550;52.230;5.194;2022-09-13T10:22:02;3.85;;;2.40;;
53646;SDS011;39550;52.230;5.194;2022-09-13T10:24:29;4.28;;;2.67;;
53646;SDS011;39550;52.230;5.194;2022-09-13T10:26:56;5.47;;;2.50;;
53646;SDS011;39550;52.230;5.194;2022-09-13T10:29:23;4.18;;;2.40;;
53646;SDS011;39550;52.230;5.194;2022-09-13T10:31:52;4.13;;;2.58;;
53646;SDS011;39550;52.230;5.194;2022-09-13T10:34:26;4.47;;;2.38;;
53646;SDS011;39550;52.230;5.194;2022-09-13T10:39:46;4.45;;;2.50;;
53646;SDS011;39550;52.230;5.194;2022-09-13T10:42:19;3.90;;;2.58;;
53646;SDS011;39550;52.230;5.194;2022-09-13T10:44:54;4.45;;;2.50;;
53646;SDS011;39550;52.230;5.194;2022-09-13T10:47:38;4.50;;;2.30;;
53646;SDS011;39550;52.230;5.194;2022-09-13T10:50:17;4.65;;;2.85;;
53646;SDS011;39550;52.230;5.194;2022-09-13T10:52:45;4.57;;;2.38;;
53646;SDS011;39550;52.230;5.194;2022-09-13T10:57:44;3.60;;;2.15;;
53646;SDS011;39550;52.230;5.194;2022-09-13T11:00:10;4.88;;;2.60;;
53646;SDS011;39550;52.230;5.194;2022-09-13T11:11:17;4.60;;;2.30;;
53646;SDS011;39550;52.230;5.194;2022-09-13T11:16:55;4.05;;;2.50;;
53646;SDS011;39550;52.230;5.194;2022-09-13T11:25:14;4.40;;;2.33;;
53646;SDS011;39550;52.230;5.194;2022-09-13T11:27:52;5.95;;;2.42;;
53646;SDS011;39550;52.230;5.194;2022-09-13T11:30:30;6.47;;;2.55;;
53646;SDS011;39550;52.230;5.194;2022-09-13T11:52:10;8.07;;;2.42;;
53646;SDS011;39550;52.230;5.194;2022-09-13T11:57:17;6.20;;;2.65;;
53646;SDS011;39550;52.230;5.194;2022-09-13T11:59:51;6.57;;;2.58;;
53646;SDS011;39550;52.230;5.194;2022-09-13T12:02:24;7.28;;;2.83;;
53646;SDS011;39550;52.230;5.194;2022-09-13T12:05:30;8.05;;;2.47;;
53646;SDS011;39550;52.230;5.194;2022-09-13T12:07:58;6.20;;;2.97;;
53646;SDS011;39550;52.230;5.194;2022-09-13T12:10:38;5.63;;;2.47;;
53646;SDS011;39550;52.230;5.194;2022-09-13T12:13:05;7.13;;;2.92;;
53646;SDS011;39550;52.230;5.194;2022-09-13T12:15:37;9.20;;;2.83;;
53646;SDS011;39550;52.230;5.194;2022-09-13T12:18:12;10.73;;;2.90;;
53646;SDS011;39550;52.230;5.194;2022-09-13T12:20:50;6.80;;;2.50;;
53646;SDS011;39550;52.230;5.194;2022-09-13T12:23:54;7.40;;;2.65;;
53646;SDS011;39550;52.230;5.194;2022-09-13T12:26:29;12.07;;;3.00;;
53646;SDS011;39550;52.230;5.194;2022-09-13T12:31:54;6.70;;;2.78;;
53646;SDS011;39550;52.230;5.194;2022-09-13T12:34:25;5.65;;;2.60;;
53646;SDS011;39550;52.230;5.194;2022-09-13T12:40:15;6.93;;;3.10;;
53646;SDS011;39550;52.230;5.194;2022-09-13T12:57:02;7.45;;;2.50;;
53646;SDS011;39550;52.230;5.194;2022-09-13T13:02:23;6.20;;;2.40;;
53646;SDS011;39550;52.230;5.194;2022-09-13T13:04:53;6.30;;;2.40;;
53646;SDS011;39550;52.230;5.194;2022-09-13T13:07:22;4.97;;;2.10;;
53646;SDS011;39550;52.230;5.194;2022-09-13T13:09:49;4.53;;;2.55;;
53646;SDS011;39550;52.230;5.194;2022-09-13T13:12:28;7.35;;;2.38;;
53646;SDS011;39550;52.230;5.194;2022-09-13T13:14:54;5.90;;;2.28;;
53646;SDS011;39550;52.230;5.194;2022-09-13T13:27:00;3.88;;;1.80;;
53646;SDS011;39550;52.230;5.194;2022-09-13T13:39:38;3.90;;;2.00;;
53646;SDS011;39550;52.230;5.194;2022-09-13T13:42:23;3.90;;;1.90;;
53646;SDS011;39550;52.230;5.194;2022-09-13T13:49:51;4.10;;;2.35;;
53646;SDS011;39550;52.230;5.194;2022-09-13T13:52:37;3.88;;;2.08;;
53646;SDS011;39550;52.230;5.194;2022-09-13T13:55:22;4.43;;;1.90;;
53646;SDS011;39550;52.230;5.194;2022-09-13T14:00:47;2.88;;;1.70;;
53646;SDS011;39550;52.230;5.194;2022-09-13T14:24:34;4.80;;;1.85;;
53646;SDS011;39550;52.230;5.194;2022-09-13T14:27:01;5.32;;;1.92;;
53646;SDS011;39550;52.230;5.194;2022-09-13T14:29:28;3.72;;;1.70;;
53646;SDS011;39550;52.230;5.194;2022-09-13T14:31:59;4.05;;;1.90;;
53646;SDS011;39550;52.230;5.194;2022-09-13T14:34:35;3.25;;;1.90;;
53646;SDS011;39550;52.230;5.194;2022-09-13T14:37:14;3.30;;;1.80;;
53646;SDS011;39550;52.230;5.194;2022-09-13T14:42:38;6.47;;;2.13;;
53646;SDS011;39550;52.230;5.194;2022-09-13T14:45:13;5.25;;;1.92;;
53646;SDS011;39550;52.230;5.194;2022-09-13T14:50:46;5.60;;;2.00;;
53646;SDS011;39550;52.230;5.194;2022-09-13T14:53:15;6.35;;;2.58;;
53646;SDS011;39550;52.230;5.194;2022-09-13T14:55:56;3.50;;;1.60;;
53646;SDS011;39550;52.230;5.194;2022-09-13T14:58:36;5.75;;;1.90;;
53646;SDS011;39550;52.230;5.194;2022-09-13T15:01:09;3.83;;;1.83;;
53646;SDS011;39550;52.230;5.194;2022-09-13T15:03:41;4.32;;;1.80;;
53646;SDS011;39550;52.230;5.194;2022-09-13T15:06:17;6.30;;;1.95;;
53646;SDS011;39550;52.230;5.194;2022-09-13T15:08:45;4.55;;;1.90;;
53646;SDS011;39550;52.230;5.194;2022-09-13T15:11:13;4.43;;;1.80;;
53646;SDS011;39550;52.230;5.194;2022-09-13T15:13:41;4.32;;;2.13;;
53646;SDS011;39550;52.230;5.194;2022-09-13T15:21:48;5.07;;;2.13;;
53646;SDS011;39550;52.230;5.194;2022-09-13T15:24:18;6.90;;;2.00;;
53646;SDS011;39550;52.230;5.194;2022-09-13T15:27:06;4.57;;;2.05;;
53646;SDS011;39550;52.230;5.194;2022-09-13T15:29:40;3.67;;;1.70;;
53646;SDS011;39550;52.230;5.194;2022-09-13T15:34:54;4.83;;;2.37;;
53646;SDS011;39550;52.230;5.194;2022-09-13T15:37:27;9.07;;;2.03;;
53646;SDS011;39550;52.230;5.194;2022-09-13T15:40:06;4.15;;;1.75;;
53646;SDS011;39550;52.230;5.194;2022-09-13T15:42:43;4.75;;;2.00;;
53646;SDS011;39550;52.230;5.194;2022-09-13T15:45:09;5.95;;;2.10;;
53646;SDS011;39550;52.230;5.194;2022-09-13T15:47:36;2.63;;;1.65;;
53646;SDS011;39550;52.230;5.194;2022-09-13T15:50:01;5.25;;;1.88;;
53646;SDS011;39550;52.230;5.194;2022-09-13T15:52:26;5.65;;;1.80;;
53646;SDS011;39550;52.230;5.194;2022-09-13T15:54:51;3.70;;;2.10;;
53646;SDS011;39550;52.230;5.194;2022-09-13T15:57:18;3.92;;;2.00;;
53646;SDS011;39550;52.230;5.194;2022-09-13T15:59:52;3.38;;;1.80;;
53646;SDS011;39550;52.230;5.194;2022-09-13T16:02:20;6.30;;;2.00;;
53646;SDS011;39550;52.230;5.194;2022-09-13T16:04:50;5.43;;;1.98;;
53646;SDS011;39550;52.230;5.194;2022-09-13T16:07:16;7.10;;;2.10;;
53646;SDS011;39550;52.230;5.194;2022-09-13T16:09:44;7.55;;;2.17;;
53646;SDS011;39550;52.230;5.194;2022-09-13T16:12:12;4.03;;;1.75;;
53646;SDS011;39550;52.230;5.194;2022-09-13T16:14:37;5.10;;;2.10;;
53646;SDS011;39550;52.230;5.194;2022-09-13T16:17:06;5.57;;;2.38;;
53646;SDS011;39550;52.230;5.194;2022-09-13T16:19:35;5.80;;;2.08;;
53646;SDS011;39550;52.230;5.194;2022-09-13T16:22:00;4.97;;;2.10;;
53646;SDS011;39550;52.230;5.194;2022-09-13T16:24:26;3.75;;;2.00;;
53646;SDS011;39550;52.230;5.194;2022-09-13T16:26:52;5.15;;;2.08;;
53646;SDS011;39550;52.230;5.194;2022-09-13T16:29:18;4.93;;;2.08;;
53646;SDS011;39550;52.230;5.194;2022-09-13T16:31:43;5.68;;;1.83;;
53646;SDS011;39550;52.230;5.194;2022-09-13T16:34:08;4.90;;;2.00;;
53646;SDS011;39550;52.230;5.194;2022-09-13T16:36:34;5.05;;;2.10;;
53646;SDS011;39550;52.230;5.194;2022-09-13T16:38:59;5.35;;;2.05;;
53646;SDS011;39550;52.230;5.194;2022-09-13T16:41:25;5.68;;;2.20;;
53646;SDS011;39550;52.230;5.194;2022-09-13T16:43:53;3.97;;;1.90;;
53646;SDS011;39550;52.230;5.194;2022-09-13T16:46:18;4.57;;;1.90;;
53646;SDS011;39550;52.230;5.194;2022-09-13T16:48:44;4.47;;;1.90;;
53646;SDS011;39550;52.230;5.194;2022-09-13T16:51:10;5.55;;;1.90;;
53646;SDS011;39550;52.230;5.194;2022-09-13T16:53:38;4.88;;;1.90;;
53646;SDS011;39550;52.230;5.194;2022-09-13T16:56:05;3.87;;;1.83;;
53646;SDS011;39550;52.230;5.194;2022-09-13T16:58:37;4.93;;;1.88;;
53646;SDS011;39550;52.230;5.194;2022-09-13T17:01:10;10.10;;;2.17;;
53646;SDS011;39550;52.230;5.194;2022-09-13T17:03:37;16.90;;;3.00;;
53646;SDS011;39550;52.230;5.194;2022-09-13T17:06:04;9.25;;;2.40;;
53646;SDS011;39550;52.230;5.194;2022-09-13T17:08:32;9.48;;;2.30;;
53646;SDS011;39550;52.230;5.194;2022-09-13T17:10:58;10.20;;;2.47;;
53646;SDS011;39550;52.230;5.194;2022-09-13T17:13:28;11.15;;;2.72;;
53646;SDS011;39550;52.230;5.194;2022-09-13T17:15:54;7.65;;;2.50;;
53646;SDS011;39550;52.230;5.194;2022-09-13T17:18:20;10.23;;;2.60;;
53646;SDS011;39550;52.230;5.194;2022-09-13T17:20:46;5.35;;;1.95;;
53646;SDS011;39550;52.230;5.194;2022-09-13T17:23:13;5.88;;;2.30;;
53646;SDS011;39550;52.230;5.194;2022-09-13T17:25:44;8.73;;;2.25;;
53646;SDS011;39550;52.230;5.194;2022-09-13T17:28:11;7.28;;;2.45;;
53646;SDS011;39550;52.230;5.194;2022-09-13T17:30:38;5.22;;;2.03;;
53646;SDS011;39550;52.230;5.194;2022-09-13T17:33:05;8.50;;;2.38;;
53646;SDS011;39550;52.230;5.194;2022-09-13T17:35:31;11.07;;;2.72;;
53646;SDS011;39550;52.230;5.194;2022-09-13T17:37:57;8.00;;;2.53;;
53646;SDS011;39550;52.230;5.194;2022-09-13T17:42:56;8.13;;;2.20;;
53646;SDS011;39550;52.230;5.194;2022-09-13T17:45:21;7.93;;;2.25;;
53646;SDS011;39550;52.230;5.194;2022-09-13T17:47:47;5.43;;;2.10;;
53646;SDS011;39550;52.230;5.194;2022-09-13T17:50:16;8.50;;;2.63;;
53646;SDS011;39550;52.230;5.194;2022-09-13T17:52:41;7.18;;;2.58;;
53646;SDS011;39550;52.230;5.194;2022-09-13T17:55:06;8.82;;;2.50;;
53646;SDS011;39550;52.230;5.194;2022-09-13T17:57:33;12.65;;;2.40;;
53646;SDS011;39550;52.230;5.194;2022-09-13T17:59:58;4.53;;;2.20;;
53646;SDS011;39550;52.230;5.194;2022-09-13T18:02:23;10.02;;;2.72;;
53646;SDS011;39550;52.230;5.194;2022-09-13T18:04:51;10.25;;;2.92;;
53646;SDS011;39550;52.230;5.194;2022-09-13T18:07:17;10.93;;;2.88;;
53646;SDS011;39550;52.230;5.194;2022-09-13T18:09:42;7.35;;;2.40;;
53646;SDS011;39550;52.230;5.194;2022-09-13T18:12:08;9.68;;;2.80;;
53646;SDS011;39550;52.230;5.194;2022-09-13T18:14:34;35.47;;;12.00;;
53646;SDS011;39550;52.230;5.194;2022-09-13T18:16:59;18.98;;;4.45;;
53646;SDS011;39550;52.230;5.194;2022-09-13T18:19:25;6.55;;;2.78;;
53646;SDS011;39550;52.230;5.194;2022-09-13T18:21:51;18.27;;;3.97;;
53646;SDS011;39550;52.230;5.194;2022-09-13T18:24:17;11.20;;;3.13;;